Time;durP1;ratioP1;P1;durP2;ratioP2;P2;SDS_P1;SDS_P2;PMS_P1;PMS_P2;Temp;Humidity;BMP_temperature;BMP_pressure;BME280_temperature;BME280_humidity;BME280_pressure;Samples;Min_cycle;Max_cycle;Signal;HPM_P1;HPM_P2
2021/04/10 00:01:44;;;;;;;56.75;23.90;;;;;;;2.65;50.32;98813.36;114348;1193;64369;-78
2021/04/10 00:04:11;;;;;;;61.37;23.37;;;;;;;2.66;50.97;98815.06;114251;1193;64368;-79
2021/04/10 00:06:39;;;;;;;56.90;24.20;;;;;;;2.73;50.89;98813.02;114275;1193;64347;-79
2021/04/10 00:09:07;;;;;;;66.15;25.35;;;;;;;2.74;50.77;98815.61;114294;1193;64358;-82
2021/04/10 00:11:35;;;;;;;70.95;28.40;;;;;;;2.71;50.79;98810.45;114226;1193;64417;-81
2021/04/10 00:14:08;;;;;;;64.87;25.43;;;;;;;2.68;51.38;98807.97;114254;1193;64361;-80
2021/04/10 00:16:35;;;;;;;55.97;23.10;;;;;;;2.67;51.16;98800.95;114344;1193;64371;-80
2021/04/10 00:19:03;;;;;;;42.00;20.50;;;;;;;2.67;50.93;98799.20;114239;1193;64426;-80
2021/04/10 00:21:30;;;;;;;54.70;22.50;;;;;;;2.66;51.15;98805.38;114226;1193;64362;-80
2021/04/10 00:23:57;;;;;;;49.95;23.65;;;;;;;2.68;51.38;98806.19;114235;1193;64842;-81
2021/04/10 00:26:24;;;;;;;39.40;20.50;;;;;;;2.72;51.33;98791.06;114274;1193;64317;-79
2021/04/10 00:28:50;;;;;;;43.60;20.87;;;;;;;2.75;51.45;98793.58;114273;1193;64455;-79
2021/04/10 00:31:17;;;;;;;46.90;20.77;;;;;;;2.80;51.17;98785.44;114230;1193;64391;-82
2021/04/10 00:33:44;;;;;;;40.70;19.00;;;;;;;2.82;51.40;98783.61;114269;1193;64366;-78
2021/04/10 00:36:11;;;;;;;47.40;22.20;;;;;;;2.77;50.92;98782.95;114203;1193;64461;-78
2021/04/10 00:38:39;;;;;;;45.40;20.63;;;;;;;2.69;51.07;98788.58;114304;1193;64359;-82
2021/04/10 00:41:11;;;;;;;46.95;19.50;;;;;;;2.66;51.32;98784.28;114211;1193;64429;-82
2021/04/10 00:43:38;;;;;;;49.23;19.93;;;;;;;2.65;51.00;98779.08;114254;1193;64429;-79
2021/04/10 00:46:06;;;;;;;43.80;18.10;;;;;;;2.67;51.01;98787.77;114241;1192;64382;-82
2021/04/10 00:48:34;;;;;;;40.65;15.35;;;;;;;2.75;51.45;98788.31;114286;1193;64535;-80
2021/04/10 00:51:02;;;;;;;33.77;16.03;;;;;;;2.85;51.64;98786.95;114241;1193;64471;-80
2021/04/10 00:53:31;;;;;;;33.50;15.30;;;;;;;2.95;51.40;98785.63;114275;1193;64400;-78
2021/04/10 00:56:03;;;;;;;37.17;15.33;;;;;;;3.00;51.19;98787.20;114283;1193;64363;-78
2021/04/10 00:58:31;;;;;;;33.93;15.90;;;;;;;3.06;51.39;98782.50;114301;1193;64432;-79
2021/04/10 01:01:00;;;;;;;37.70;14.80;;;;;;;3.13;51.40;98775.16;114256;1193;64333;-81
2021/04/10 01:03:26;;;;;;;29.50;13.80;;;;;;;3.20;51.37;98781.86;114288;1193;64414;-79
2021/04/10 01:05:53;;;;;;;33.00;14.20;;;;;;;3.29;51.47;98780.56;114233;1193;64391;-78
2021/04/10 01:08:20;;;;;;;26.70;12.03;;;;;;;3.41;51.53;98783.48;114235;1193;64407;-78
2021/04/10 01:10:47;;;;;;;29.67;13.23;;;;;;;3.51;51.38;98776.84;114289;1193;64449;-80
2021/04/10 01:13:53;;;;;;;27.00;13.70;;;;;;;3.57;51.04;98777.48;114252;1192;64522;-78
2021/04/10 01:16:29;;;;;;;28.53;12.27;;;;;;;3.53;50.73;98785.54;113999;1196;64349;-78
2021/04/10 01:19:27;;;;;;;30.70;12.30;;;;;;;3.55;51.10;98790.74;114060;1196;64372;-78
2021/04/10 01:22:08;;;;;;;27.65;11.95;;;;;;;3.56;50.99;98788.95;113758;1200;64570;-80
2021/04/10 01:24:42;;;;;;;30.90;12.45;;;;;;;3.53;51.01;98784.69;113701;1200;64397;-83
2021/04/10 01:27:27;;;;;;;29.00;12.90;;;;;;;3.39;50.81;98789.77;113734;1200;64503;-78
2021/04/10 01:30:01;;;;;;;22.85;11.55;;;;;;;3.17;50.74;98782.84;113727;1200;64356;-82
2021/04/10 01:32:33;;;;;;;30.60;13.40;;;;;;;2.96;50.80;98786.48;113413;1200;64784;-83
2021/04/10 01:35:13;;;;;;;28.40;13.70;;;;;;;2.78;51.24;98790.80;113712;1200;64365;-79
2021/04/10 01:37:47;;;;;;;28.80;14.60;;;;;;;2.60;51.23;98788.97;113748;1200;64352;-80
2021/04/10 01:40:15;;;;;;;34.07;14.17;;;;;;;2.55;51.45;98788.34;113662;1200;64394;-80
2021/04/10 01:42:45;;;;;;;38.80;15.90;;;;;;;2.56;51.66;98784.77;113694;1199;64982;-80
2021/04/10 01:45:13;;;;;;;37.50;16.50;;;;;;;2.58;51.54;98781.13;113896;1200;64380;-82
2021/04/10 01:47:44;;;;;;;48.00;18.25;;;;;;;2.62;51.85;98788.00;113983;1196;64502;-80
2021/04/10 01:50:11;;;;;;;64.60;23.80;;;;;;;2.70;52.20;98782.38;114010;1196;64439;-82
2021/04/10 01:52:40;;;;;;;56.20;19.10;;;;;;;2.82;52.08;98778.34;114036;1196;64519;-81
2021/04/10 01:55:10;;;;;;;38.30;14.70;;;;;;;2.88;52.16;98778.92;114080;1196;64483;-79
2021/04/10 01:57:41;;;;;;;35.83;14.93;;;;;;;2.94;52.05;98768.09;114034;1196;64404;-80
2021/04/10 02:00:12;;;;;;;32.90;13.10;;;;;;;2.94;52.12;98770.73;114275;1193;64378;-81
2021/04/10 02:02:46;;;;;;;29.53;13.73;;;;;;;2.93;51.67;98766.38;114643;1193;64318;-80
2021/04/10 02:05:17;;;;;;;33.07;14.37;;;;;;;2.87;51.96;98764.02;114389;1193;64362;-79
2021/04/10 02:07:49;;;;;;;29.83;13.83;;;;;;;2.77;51.74;98761.86;114309;1193;64423;-81
2021/04/10 02:10:18;;;;;;;22.60;11.43;;;;;;;2.64;51.73;98764.19;114280;1193;64401;-82
2021/04/10 02:12:57;;;;;;;29.70;13.00;;;;;;;2.54;51.88;98763.73;114263;1192;64368;-80
2021/04/10 02:15:42;;;;;;;28.90;14.65;;;;;;;2.40;51.70;98766.98;114216;1192;64419;-81
2021/04/10 02:18:11;;;;;;;47.50;19.07;;;;;;;2.27;51.73;98773.70;114316;1193;64458;-78
2021/04/10 02:20:37;;;;;;;43.90;18.95;;;;;;;2.16;51.70;98781.20;114303;1193;64445;-79
2021/04/10 02:23:04;;;;;;;43.87;17.73;;;;;;;2.08;51.73;98778.05;114205;1193;64397;-78
2021/04/10 02:25:37;;;;;;;32.77;15.33;;;;;;;2.02;51.85;98773.03;114246;1193;64327;-80
2021/04/10 02:28:05;;;;;;;38.55;18.10;;;;;;;1.99;52.07;98774.03;114207;1193;64531;-79
2021/04/10 02:30:32;;;;;;;42.33;20.43;;;;;;;1.94;52.18;98772.50;114199;1192;65053;-81
2021/04/10 02:33:08;;;;;;;34.53;16.40;;;;;;;1.92;52.49;98767.31;114290;1193;64454;-80
2021/04/10 02:35:45;;;;;;;25.10;13.80;;;;;;;1.89;52.37;98768.27;114197;1192;64359;-79
2021/04/10 02:38:16;;;;;;;19.23;10.60;;;;;;;2.07;53.11;98765.80;114337;1192;64751;-80
2021/04/10 02:40:54;;;;;;;25.67;13.13;;;;;;;2.30;53.09;98768.31;114292;1193;64959;-81
2021/04/10 02:43:26;;;;;;;29.60;12.90;;;;;;;2.28;52.39;98758.75;114350;1193;64493;-78
2021/04/10 02:45:59;;;;;;;26.33;12.43;;;;;;;2.20;52.29;98753.81;114965;1193;64308;-82
2021/04/10 02:48:33;;;;;;;26.40;12.60;;;;;;;2.12;52.30;98758.56;114243;1193;64458;-79
2021/04/10 02:51:03;;;;;;;26.67;14.27;;;;;;;2.05;51.93;98757.11;114331;1193;64414;-78
2021/04/10 02:53:35;;;;;;;27.20;13.65;;;;;;;1.99;52.28;98754.73;114410;1193;64362;-79
2021/04/10 02:56:06;;;;;;;37.00;14.90;;;;;;;1.92;52.25;98755.92;114289;1192;64596;-78
2021/04/10 02:58:33;;;;;;;34.30;16.60;;;;;;;1.85;52.06;98750.91;114240;1193;64449;-81
2021/04/10 03:01:01;;;;;;;57.00;20.77;;;;;;;1.76;52.66;98750.42;114366;1193;64417;-80
2021/04/10 03:03:32;;;;;;;165.45;46.10;;;;;;;1.65;53.11;98758.75;114334;1193;64356;-79
2021/04/10 03:06:02;;;;;;;275.40;76.07;;;;;;;1.59;52.51;98751.09;114276;1193;64455;-78
2021/04/10 03:08:29;;;;;;;292.80;80.37;;;;;;;1.56;53.00;98754.72;114176;1193;64535;-82
2021/04/10 03:10:59;;;;;;;283.27;74.10;;;;;;;1.53;53.10;98754.86;114281;1193;64356;-79
2021/04/10 03:13:27;;;;;;;148.83;45.20;;;;;;;1.53;52.73;98762.76;114232;1193;64355;-82
2021/04/10 03:16:01;;;;;;;204.10;56.10;;;;;;;1.53;52.87;98764.53;114312;1193;64384;-79
2021/04/10 03:18:30;;;;;;;163.43;48.90;;;;;;;1.48;53.04;98761.22;114301;1193;64407;-83
2021/04/10 03:21:06;;;;;;;90.65;28.95;;;;;;;1.38;53.74;98762.50;114277;1193;64363;-80
2021/04/10 03:23:33;;;;;;;65.00;26.90;;;;;;;1.27;53.04;98758.53;114290;1193;64311;-79
2021/04/10 03:26:03;;;;;;;69.30;28.03;;;;;;;1.20;53.44;98764.06;114354;1193;64323;-77
2021/04/10 03:28:33;;;;;;;71.00;26.95;;;;;;;1.12;53.23;98768.77;114293;1193;64365;-83
2021/04/10 03:31:02;;;;;;;62.20;27.40;;;;;;;1.03;53.15;98764.73;114312;1193;64430;-78
2021/04/10 03:33:32;;;;;;;52.30;23.50;;;;;;;0.96;53.22;98756.23;114221;1193;64500;-84
2021/04/10 03:36:01;;;;;;;45.77;15.43;;;;;;;1.08;53.80;98755.76;114292;1193;64380;-79
2021/04/10 03:38:28;;;;;;;30.90;12.63;;;;;;;1.44;54.56;98763.11;114308;1193;64397;-78
2021/04/10 03:40:56;;;;;;;25.93;11.27;;;;;;;1.80;54.00;98749.38;114289;1193;64468;-80
2021/04/10 03:43:22;;;;;;;26.23;12.07;;;;;;;2.09;54.26;98750.78;114316;1193;64378;-81
2021/04/10 03:45:51;;;;;;;20.53;10.17;;;;;;;2.36;53.93;98754.88;114277;1193;64369;-78
2021/04/10 03:48:24;;;;;;;20.90;9.87;;;;;;;2.60;53.69;98749.42;114230;1193;64410;-80
2021/04/10 03:50:56;;;;;;;21.75;10.25;;;;;;;2.67;53.59;98748.22;114288;1193;64359;-80
2021/04/10 03:53:24;;;;;;;19.50;10.40;;;;;;;2.75;53.45;98748.76;114289;1193;64404;-80
2021/04/10 03:55:54;;;;;;;20.53;9.77;;;;;;;2.88;53.67;98744.63;114278;1193;64468;-80
2021/04/10 03:58:21;;;;;;;29.07;9.47;;;;;;;3.01;53.86;98744.06;114194;1193;64430;-78
2021/04/10 04:00:48;;;;;;;20.85;9.55;;;;;;;3.16;53.42;98743.34;114220;1193;64436;-81
2021/04/10 04:03:16;;;;;;;19.80;9.80;;;;;;;3.24;53.54;98742.07;114229;1193;64807;-80
2021/04/10 04:05:42;;;;;;;22.37;9.33;;;;;;;3.34;53.30;98737.20;114220;1193;64349;-80
2021/04/10 04:08:09;;;;;;;17.23;7.93;;;;;;;3.46;53.51;98749.81;114369;1193;64407;-81
2021/04/10 04:10:36;;;;;;;13.23;7.67;;;;;;;3.59;53.46;98747.43;114243;1193;64436;-81
2021/04/10 04:13:03;;;;;;;12.80;7.25;;;;;;;3.71;53.26;98756.55;114245;1193;64384;-79
2021/04/10 04:15:29;;;;;;;17.85;9.00;;;;;;;3.85;53.40;98747.94;114270;1193;64299;-83
2021/04/10 04:17:56;;;;;;;13.43;7.77;;;;;;;3.98;53.24;98744.59;114277;1193;64464;-79
2021/04/10 04:20:23;;;;;;;12.05;7.20;;;;;;;4.10;53.13;98747.56;114271;1192;64349;-80
2021/04/10 04:22:52;;;;;;;16.75;8.10;;;;;;;4.23;53.24;98746.00;114261;1193;64468;-77
2021/04/10 04:25:18;;;;;;;18.00;7.55;;;;;;;4.38;53.56;98747.84;114255;1193;64410;-83
2021/04/10 04:27:45;;;;;;;13.25;6.90;;;;;;;4.55;53.01;98755.76;114247;1193;64420;-82
2021/04/10 04:30:13;;;;;;;16.13;7.07;;;;;;;4.69;52.72;98756.82;114248;1193;64480;-83
2021/04/10 04:32:40;;;;;;;23.30;8.90;;;;;;;4.73;52.85;98753.09;114270;1193;64362;-79
2021/04/10 04:35:07;;;;;;;13.70;7.35;;;;;;;4.76;52.71;98758.20;114228;1193;64359;-81
2021/04/10 04:37:34;;;;;;;15.73;8.37;;;;;;;4.75;52.76;98753.85;114234;1193;64445;-79
2021/04/10 04:40:01;;;;;;;15.30;7.60;;;;;;;4.74;52.48;98749.50;114241;1193;64454;-80
2021/04/10 04:42:27;;;;;;;18.47;8.20;;;;;;;4.73;52.72;98747.80;114263;1193;64343;-80
2021/04/10 04:44:54;;;;;;;21.43;9.07;;;;;;;4.72;52.53;98746.09;114241;1192;64356;-82
2021/04/10 04:47:21;;;;;;;23.00;10.43;;;;;;;4.74;52.28;98744.21;114208;1193;64459;-81
2021/04/10 04:49:47;;;;;;;25.97;11.40;;;;;;;4.77;52.54;98750.20;114262;1193;64400;-82
2021/04/10 04:52:14;;;;;;;19.03;11.47;;;;;;;4.84;52.46;98751.59;114281;1193;64359;-81
2021/04/10 04:54:41;;;;;;;27.15;13.05;;;;;;;4.96;52.38;98757.98;114242;1193;64334;-77
2021/04/10 04:57:08;;;;;;;30.90;15.20;;;;;;;5.09;52.64;98768.76;114223;1193;64289;-84
2021/04/10 04:59:34;;;;;;;32.90;16.77;;;;;;;5.27;53.06;98764.26;114237;1193;64445;-78
2021/04/10 05:02:01;;;;;;;33.50;15.17;;;;;;;5.48;52.63;98759.59;114276;1193;64376;-80
2021/04/10 05:04:28;;;;;;;26.33;14.67;;;;;;;5.67;52.96;98741.70;114227;1193;64344;-79
2021/04/10 05:06:54;;;;;;;24.87;13.93;;;;;;;5.81;52.79;98739.11;114254;1193;64337;-78
2021/04/10 05:09:21;;;;;;;28.47;13.63;;;;;;;5.92;52.41;98742.03;114322;1193;64397;-79
2021/04/10 05:11:47;;;;;;;44.23;13.00;;;;;;;5.99;52.13;98739.03;114255;1193;64464;-80
2021/04/10 05:14:14;;;;;;;26.20;12.83;;;;;;;6.06;52.77;98743.88;114238;1193;64436;-78
2021/04/10 05:16:41;;;;;;;20.33;11.47;;;;;;;6.11;52.85;98738.31;114302;1193;64401;-78
2021/04/10 05:19:09;;;;;;;24.25;10.65;;;;;;;6.15;52.23;98753.92;114267;1193;64302;-83
2021/04/10 05:21:35;;;;;;;19.80;10.40;;;;;;;6.18;52.58;98748.45;114224;1193;64374;-78
2021/04/10 05:24:02;;;;;;;22.17;11.60;;;;;;;6.23;52.81;98753.47;114228;1193;64523;-78
2021/04/10 05:26:29;;;;;;;22.90;10.60;;;;;;;6.29;52.19;98744.30;114266;1193;64427;-78
2021/04/10 05:28:56;;;;;;;16.80;9.10;;;;;;;6.41;52.28;98748.88;114242;1193;64362;-81
2021/04/10 05:31:23;;;;;;;17.70;9.60;;;;;;;6.56;51.82;98740.01;114243;1193;64314;-78
2021/04/10 05:33:50;;;;;;;23.27;9.60;;;;;;;6.72;52.14;98735.45;114274;1193;64369;-80
2021/04/10 05:36:17;;;;;;;18.30;9.70;;;;;;;6.86;52.84;98739.91;114202;1193;64429;-80
2021/04/10 05:38:43;;;;;;;20.10;9.50;;;;;;;7.01;52.75;98743.43;114243;1193;64749;-80
2021/04/10 05:41:10;;;;;;;27.70;10.15;;;;;;;7.15;52.74;98731.94;114294;1193;64361;-80
2021/04/10 05:43:37;;;;;;;25.60;10.35;;;;;;;7.26;52.82;98730.31;114314;1193;64368;-78
2021/04/10 05:46:03;;;;;;;29.75;14.60;;;;;;;7.41;52.81;98719.64;114252;1193;64285;-82
2021/04/10 05:48:30;;;;;;;27.80;14.10;;;;;;;7.55;52.83;98727.56;114249;1193;64516;-81
2021/04/10 05:50:57;;;;;;;27.67;12.67;;;;;;;7.68;52.97;98716.99;114176;1193;64468;-84
2021/04/10 05:53:26;;;;;;;23.67;11.77;;;;;;;7.80;52.50;98722.34;114224;1193;64391;-82
2021/04/10 05:55:53;;;;;;;30.15;15.40;;;;;;;7.94;52.59;98723.23;114285;1193;64483;-78
2021/04/10 05:58:21;;;;;;;36.70;17.30;;;;;;;8.06;53.02;98704.66;114282;1193;64315;-79
2021/04/10 06:00:48;;;;;;;40.45;18.35;;;;;;;8.15;52.85;98708.52;114219;1193;64419;-80
2021/04/10 06:03:15;;;;;;;40.50;21.20;;;;;;;8.15;52.65;98712.99;114274;1193;64503;-80
2021/04/10 06:05:46;;;;;;;49.93;22.93;;;;;;;8.19;52.31;98723.30;114246;1193;64353;-80
2021/04/10 06:08:13;;;;;;;64.63;32.40;;;;;;;8.27;52.46;98728.09;114249;1192;64317;-79
2021/04/10 06:10:40;;;;;;;77.33;31.83;;;;;;;8.35;52.37;98728.45;114340;1193;64484;-79
2021/04/10 06:13:08;;;;;;;53.70;21.97;;;;;;;8.43;52.17;98730.61;114296;1193;64462;-79
2021/04/10 06:15:35;;;;;;;38.30;17.10;;;;;;;8.51;52.13;98730.93;114310;1193;64468;-82
2021/04/10 06:18:02;;;;;;;32.10;14.43;;;;;;;8.61;52.37;98730.20;114297;1193;64477;-80
2021/04/10 06:20:28;;;;;;;32.85;15.25;;;;;;;8.76;51.90;98727.42;114225;1193;64362;-85
2021/04/10 06:22:55;;;;;;;33.73;16.73;;;;;;;8.88;51.99;98730.08;114240;1193;64342;-78
2021/04/10 06:25:22;;;;;;;32.25;15.30;;;;;;;8.98;52.14;98729.45;114224;1193;64339;-78
2021/04/10 06:27:48;;;;;;;34.47;15.00;;;;;;;9.07;51.83;98731.44;114283;1192;64327;-77
2021/04/10 06:30:16;;;;;;;32.93;13.70;;;;;;;9.20;51.98;98742.92;114217;1193;64397;-78
2021/04/10 06:32:42;;;;;;;33.60;15.77;;;;;;;9.32;51.80;98744.71;114336;1193;64312;-77
2021/04/10 06:35:10;;;;;;;41.23;18.80;;;;;;;9.44;51.77;98746.50;114320;1193;64471;-83
2021/04/10 06:37:37;;;;;;;37.25;16.50;;;;;;;9.56;51.77;98744.77;114250;1193;64468;-77
2021/04/10 06:40:06;;;;;;;38.90;14.13;;;;;;;9.68;51.78;98743.02;114249;1193;64313;-80
2021/04/10 06:42:33;;;;;;;23.85;11.05;;;;;;;9.82;51.64;98744.66;114331;1193;64279;-77
2021/04/10 06:45:00;;;;;;;25.07;11.77;;;;;;;9.93;51.86;98740.24;114285;1193;64282;-78
2021/04/10 06:47:29;;;;;;;25.83;11.33;;;;;;;10.08;51.58;98737.39;114245;1193;64368;-79
2021/04/10 06:49:58;;;;;;;23.65;9.65;;;;;;;10.22;51.54;98735.37;114273;1193;64420;-80
2021/04/10 06:52:26;;;;;;;16.35;9.85;;;;;;;10.36;51.22;98729.01;114288;1193;64461;-80
2021/04/10 06:55:02;;;;;;;19.43;8.63;;;;;;;10.51;51.18;98722.52;114375;1193;64369;-81
2021/04/10 06:57:39;;;;;;;20.30;9.70;;;;;;;10.66;51.58;98712.45;114272;1191;64452;-81
2021/04/10 07:00:10;;;;;;;22.10;9.75;;;;;;;10.80;51.61;98712.22;114668;1192;64369;-78
2021/04/10 07:02:39;;;;;;;19.45;9.90;;;;;;;10.96;51.22;98717.22;114333;1193;64445;-76
2021/04/10 07:05:07;;;;;;;18.95;9.50;;;;;;;11.14;51.57;98717.59;114307;1193;64359;-77
2021/04/10 07:07:35;;;;;;;25.17;9.87;;;;;;;11.33;51.74;98724.98;114215;1193;64775;-79
2021/04/10 07:10:04;;;;;;;22.55;10.40;;;;;;;11.47;51.77;98711.34;114228;1193;64371;-79
2021/04/10 07:12:32;;;;;;;23.33;9.93;;;;;;;11.60;51.53;98713.88;114261;1193;64362;-77
2021/04/10 07:15:00;;;;;;;16.83;9.53;;;;;;;11.75;51.27;98711.75;114352;1192;64400;-78
2021/04/10 07:17:28;;;;;;;16.07;9.87;;;;;;;11.97;51.43;98713.55;114345;1193;64356;-75
2021/04/10 07:19:55;;;;;;;17.57;9.97;;;;;;;12.24;51.43;98705.88;114727;1192;64851;-77
2021/04/10 07:22:23;;;;;;;16.85;10.30;;;;;;;12.55;50.90;98714.83;114448;1193;64385;-77
2021/04/10 07:24:54;;;;;;;21.83;9.60;;;;;;;12.75;50.49;98722.98;114284;1192;64449;-78
2021/04/10 07:27:25;;;;;;;18.47;10.60;;;;;;;12.86;50.24;98722.91;114252;1193;64496;-78
2021/04/10 07:29:58;;;;;;;25.03;11.97;;;;;;;13.01;50.39;98720.72;114301;1193;64336;-81
2021/04/10 07:32:34;;;;;;;23.75;12.05;;;;;;;13.21;50.78;98718.02;114266;1193;64420;-80
2021/04/10 07:35:14;;;;;;;27.00;10.93;;;;;;;13.51;50.50;98718.96;114356;1193;64464;-78
2021/04/10 07:37:49;;;;;;;22.30;12.75;;;;;;;13.82;50.57;98706.31;114568;1193;64298;-76
2021/04/10 07:40:27;;;;;;;24.03;12.30;;;;;;;14.18;50.53;98706.59;115390;1193;64343;-82
2021/04/10 07:43:01;;;;;;;22.80;11.85;;;;;;;14.49;50.33;98704.63;114271;1193;64314;-80
2021/04/10 07:45:33;;;;;;;34.60;12.27;;;;;;;14.78;50.16;98699.20;114292;1193;64496;-82
2021/04/10 07:48:14;;;;;;;26.70;12.40;;;;;;;14.98;50.19;98702.67;114575;1193;64337;-78
2021/04/10 07:50:41;;;;;;;13.80;8.27;;;;;;;15.00;49.30;98692.61;114245;1192;64461;-77
2021/04/10 07:53:24;;;;;;;12.05;7.80;;;;;;;14.92;49.33;98682.59;114242;1193;64448;-83
2021/04/10 07:55:57;;;;;;;12.80;6.60;;;;;;;14.88;49.24;98694.63;114270;1193;64378;-78
2021/04/10 07:58:34;;;;;;;14.77;8.23;;;;;;;14.80;49.43;98697.20;114632;1193;64771;-80
2021/04/10 08:01:02;;;;;;;16.95;6.35;;;;;;;14.70;48.76;98701.78;114280;1193;64401;-81
2021/04/10 08:03:39;;;;;;;9.30;6.10;;;;;;;14.59;48.83;98700.09;114245;1193;64359;-83
2021/04/10 08:06:06;;;;;;;13.73;6.37;;;;;;;14.44;48.35;98701.48;114197;1192;64346;-79
2021/04/10 08:08:54;;;;;;;9.35;5.95;;;;;;;14.31;47.98;98709.84;114249;1193;64403;-78
2021/04/10 08:11:41;;;;;;;9.57;6.20;;;;;;;14.25;48.01;98713.97;114620;1193;64349;-77
2021/04/10 08:14:09;;;;;;;9.87;6.37;;;;;;;14.30;48.14;98717.05;114542;1193;64301;-79
2021/04/10 08:16:41;;;;;;;14.93;6.53;;;;;;;14.43;48.04;98716.76;114393;1193;64367;-79
2021/04/10 08:19:09;;;;;;;10.27;6.60;;;;;;;14.54;48.32;98713.11;114634;1193;64353;-79
2021/04/10 08:21:35;;;;;;;14.90;7.80;;;;;;;14.67;48.15;98708.27;114871;1193;64400;-76
2021/04/10 08:24:25;;;;;;;17.87;8.27;;;;;;;14.69;48.07;98706.27;114500;1193;64384;-77
2021/04/10 08:27:07;;;;;;;14.93;8.53;;;;;;;14.65;47.81;98704.89;114255;1193;64417;-76
2021/04/10 08:29:35;;;;;;;17.73;7.23;;;;;;;14.55;47.51;98714.80;114561;1193;64356;-79
2021/04/10 08:32:03;;;;;;;13.37;6.40;;;;;;;14.30;47.60;98714.36;114302;1193;64538;-75
2021/04/10 08:34:31;;;;;;;10.17;6.57;;;;;;;14.10;48.06;98722.58;114275;1193;64356;-79
2021/04/10 08:37:02;;;;;;;12.83;6.80;;;;;;;13.95;48.05;98732.89;114631;1193;64359;-78
2021/04/10 08:39:36;;;;;;;13.73;6.73;;;;;;;13.83;48.08;98723.27;114272;1193;64401;-78
2021/04/10 08:42:04;;;;;;;15.50;8.23;;;;;;;13.70;48.18;98728.89;114341;1193;64365;-79
2021/04/10 08:44:35;;;;;;;19.27;8.53;;;;;;;13.61;48.10;98729.70;114345;1193;64324;-77
2021/04/10 08:47:03;;;;;;;21.20;9.13;;;;;;;13.50;48.16;98736.89;114617;1193;64302;-78
2021/04/10 08:49:38;;;;;;;13.93;8.43;;;;;;;13.39;48.11;98736.99;114237;1193;64468;-79
2021/04/10 08:52:13;;;;;;;17.15;8.70;;;;;;;13.27;48.15;98748.80;114265;1193;64326;-78
2021/04/10 08:54:42;;;;;;;15.13;8.70;;;;;;;13.16;48.28;98747.02;114307;1193;64334;-77
2021/04/10 08:57:11;;;;;;;16.63;8.30;;;;;;;13.08;48.33;98752.21;114552;1193;64461;-76
2021/04/10 08:59:40;;;;;;;26.00;10.20;;;;;;;13.01;48.00;98750.20;114389;1193;64443;-81
2021/04/10 09:02:16;;;;;;;18.73;9.50;;;;;;;12.96;47.98;98756.80;114356;1193;64390;-80
2021/04/10 09:04:54;;;;;;;21.40;8.93;;;;;;;12.93;47.80;98750.88;114402;1193;64401;-81
2021/04/10 09:07:43;;;;;;;27.47;8.53;;;;;;;12.91;47.62;98752.82;114379;1193;64432;-77
2021/04/10 09:10:30;;;;;;;15.33;6.93;;;;;;;12.91;47.00;98752.82;114268;1193;64503;-83
2021/04/10 09:13:15;;;;;;;27.63;7.10;;;;;;;12.92;47.04;98754.55;114277;1193;64342;-77
2021/04/10 09:15:42;;;;;;;12.70;6.60;;;;;;;12.94;46.34;98758.78;114369;1193;64359;-76
2021/04/10 09:18:11;;;;;;;12.27;7.27;;;;;;;12.95;46.94;98760.47;114357;1193;64420;-75
2021/04/10 09:20:50;;;;;;;16.40;7.17;;;;;;;12.98;46.71;98757.54;114301;1193;64365;-78
2021/04/10 09:23:18;;;;;;;15.63;7.07;;;;;;;12.96;47.00;98764.84;114811;1193;64442;-80
2021/04/10 09:26:13;;;;;;;12.23;6.70;;;;;;;12.90;47.01;98760.02;114417;1193;64693;-76
2021/04/10 09:28:55;;;;;;;20.53;8.13;;;;;;;12.81;47.08;98770.69;114493;1193;64448;-75
2021/04/10 09:31:40;;;;;;;16.87;8.53;;;;;;;12.69;47.30;98778.79;114574;1193;64247;-76
2021/04/10 09:34:48;;;;;;;16.15;8.05;;;;;;;12.63;46.93;98781.14;114549;1193;64362;-76
2021/04/10 09:37:21;;;;;;;17.23;8.53;;;;;;;12.56;47.08;98788.00;114424;1193;64879;-75
2021/04/10 09:40:04;;;;;;;23.90;11.43;;;;;;;12.54;47.35;98779.25;114437;1193;64359;-76
2021/04/10 09:42:34;;;;;;;23.10;10.10;;;;;;;12.51;47.33;98783.02;114345;1193;64336;-77
2021/04/10 09:45:07;;;;;;;30.47;9.47;;;;;;;12.50;46.73;98783.16;114285;1193;64356;-78
2021/04/10 09:48:11;;;;;;;19.43;8.47;;;;;;;12.46;46.33;98782.55;114382;1193;64445;-79
2021/04/10 09:50:44;;;;;;;23.53;11.33;;;;;;;12.34;46.43;98789.81;114147;1200;64634;-79
2021/04/10 09:53:19;;;;;;;24.55;10.70;;;;;;;12.31;46.97;98792.73;114177;1196;64407;-79
2021/04/10 09:55:56;;;;;;;20.50;8.20;;;;;;;12.28;46.53;98784.97;114065;1196;64394;-78
2021/04/10 09:58:23;;;;;;;15.10;8.00;;;;;;;12.23;46.86;98791.68;114048;1200;64445;-78
2021/04/10 10:00:53;;;;;;;17.60;9.10;;;;;;;12.21;46.68;98796.30;114007;1196;64494;-78
2021/04/10 10:03:24;;;;;;;21.65;11.15;;;;;;;12.25;46.79;98797.75;114019;1196;64528;-81
2021/04/10 10:05:53;;;;;;;18.70;9.20;;;;;;;12.30;46.66;98809.78;114024;1196;64445;-77
2021/04/10 10:08:23;;;;;;;21.60;11.20;;;;;;;12.34;46.51;98802.33;114126;1196;64541;-77
2021/04/10 10:10:52;;;;;;;27.20;11.90;;;;;;;12.44;46.11;98809.47;114046;1196;64445;-78
2021/04/10 10:13:25;;;;;;;23.70;11.10;;;;;;;12.55;45.92;98821.13;114062;1196;64381;-80
2021/04/10 10:15:53;;;;;;;38.00;18.80;;;;;;;12.72;46.32;98833.93;113977;1197;64497;-76
2021/04/10 10:18:26;;;;;;;21.45;10.20;;;;;;;12.85;45.73;98823.02;114034;1196;64519;-78
2021/04/10 10:21:05;;;;;;;16.80;9.50;;;;;;;12.92;45.89;98834.95;114040;1196;64366;-81
2021/04/10 10:23:36;;;;;;;14.50;8.70;;;;;;;13.06;45.86;98831.94;114094;1196;64429;-77
2021/04/10 10:26:16;;;;;;;23.10;11.85;;;;;;;13.21;45.75;98838.67;114071;1193;64458;-80
2021/04/10 10:28:52;;;;;;;13.97;8.30;;;;;;;13.38;45.98;98841.74;114268;1193;64391;-78
2021/04/10 10:31:22;;;;;;;24.07;10.70;;;;;;;13.49;44.71;98831.78;114308;1193;64413;-80
2021/04/10 10:33:52;;;;;;;21.10;11.00;;;;;;;13.52;45.93;98836.02;114144;1193;65973;-77
2021/04/10 10:36:21;;;;;;;22.70;11.85;;;;;;;13.61;46.39;98843.23;114297;1193;64381;-80
2021/04/10 10:38:50;;;;;;;23.50;11.80;;;;;;;13.75;46.31;98855.47;114288;1193;64388;-82
2021/04/10 10:41:18;;;;;;;17.53;11.37;;;;;;;13.69;45.87;98848.80;114276;1193;64509;-78
2021/04/10 10:43:46;;;;;;;16.37;11.00;;;;;;;13.63;45.95;98851.18;114325;1193;64400;-81
2021/04/10 10:46:20;;;;;;;20.27;9.83;;;;;;;13.53;45.82;98857.33;114174;1193;64301;-80
2021/04/10 10:48:48;;;;;;;18.47;10.47;;;;;;;13.55;46.19;98850.98;114320;1193;64365;-81
2021/04/10 10:51:20;;;;;;;19.40;10.05;;;;;;;13.64;46.41;98853.72;114315;1193;64371;-76
2021/04/10 10:53:52;;;;;;;17.75;10.80;;;;;;;13.70;46.11;98853.18;114327;1193;64547;-77
2021/04/10 10:56:21;;;;;;;19.80;11.75;;;;;;;13.65;46.11;98850.05;114246;1193;64346;-80
2021/04/10 10:58:50;;;;;;;19.05;11.00;;;;;;;13.64;46.18;98847.51;114364;1193;64356;-77
2021/04/10 11:01:28;;;;;;;16.67;10.60;;;;;;;13.61;45.88;98853.13;114318;1193;64359;-77
2021/04/10 11:04:04;;;;;;;27.80;16.70;;;;;;;13.59;46.27;98855.10;114252;1193;64510;-78
2021/04/10 11:06:46;;;;;;;18.73;11.30;;;;;;;13.59;46.19;98855.95;114241;1193;64291;-81
2021/04/10 11:09:22;;;;;;;15.00;10.00;;;;;;;13.42;46.06;98859.25;114319;1192;64353;-77
2021/04/10 11:11:52;;;;;;;20.40;11.50;;;;;;;13.32;46.32;98864.58;114302;1192;64359;-79
2021/04/10 11:14:21;;;;;;;24.37;13.30;;;;;;;13.27;45.99;98868.63;114224;1193;64413;-78
2021/04/10 11:16:49;;;;;;;21.93;12.10;;;;;;;13.14;45.76;98874.16;114296;1193;64333;-78
2021/04/10 11:19:40;;;;;;;33.47;16.13;;;;;;;13.02;46.31;98883.25;114322;1193;64555;-80
2021/04/10 11:22:08;;;;;;;37.03;20.43;;;;;;;12.96;46.18;98880.10;114209;1193;64359;-81
2021/04/10 11:24:40;;;;;;;43.50;25.20;;;;;;;12.78;46.11;98881.64;114262;1193;64391;-78
2021/04/10 11:27:16;;;;;;;28.57;17.40;;;;;;;12.66;46.27;98890.70;114242;1193;64365;-76
2021/04/10 11:30:08;;;;;;;32.50;18.77;;;;;;;12.54;46.46;98887.25;114258;1193;64336;-76
2021/04/10 11:32:42;;;;;;;22.70;13.50;;;;;;;12.44;46.22;98883.61;114249;1193;64356;-78
2021/04/10 11:35:23;;;;;;;28.05;13.45;;;;;;;12.32;46.42;98879.27;114231;1193;64432;-79